sensor_id;sensor_type;location;lat;lon;timestamp;pressure;altitude;pressure_sealevel;temperature;humidity
55490;BME280;44029;52.956;4.772;2023-05-16T00:00:15;102130.91;;;11.40;100.00
55490;BME280;44029;52.956;4.772;2023-05-16T00:02:41;102127.06;;;11.48;100.00
55490;BME280;44029;52.956;4.772;2023-05-16T00:05:06;102135.91;;;11.50;100.00
55490;BME280;44029;52.956;4.772;2023-05-16T00:07:32;102131.47;;;11.49;100.00
55490;BME280;44029;52.956;4.772;2023-05-16T00:09:58;102119.28;;;11.45;100.00
55490;BME280;44029;52.956;4.772;2023-05-16T00:12:23;102133.81;;;11.45;100.00
55490;BME280;44029;52.956;4.772;2023-05-16T00:14:49;102133.59;;;11.47;100.00
55490;BME280;44029;52.956;4.772;2023-05-16T00:17:15;102129.81;;;11.48;100.00
55490;BME280;44029;52.956;4.772;2023-05-16T00:19:41;102133.47;;;11.60;100.00
55490;BME280;44029;52.956;4.772;2023-05-16T00:22:08;102143.63;;;11.59;100.00
55490;BME280;44029;52.956;4.772;2023-05-16T00:24:35;102127.75;;;11.61;100.00
55490;BME280;44029;52.956;4.772;2023-05-16T00:27:00;102120.28;;;11.50;100.00
55490;BME280;44029;52.956;4.772;2023-05-16T00:29:31;102134.03;;;11.44;100.00
55490;BME280;44029;52.956;4.772;2023-05-16T00:31:56;102116.41;;;11.58;100.00
55490;BME280;44029;52.956;4.772;2023-05-16T00:34:22;102119.66;;;11.48;100.00
55490;BME280;44029;52.956;4.772;2023-05-16T00:36:49;102125.41;;;11.40;100.00
55490;BME280;44029;52.956;4.772;2023-05-16T00:39:16;102128.72;;;11.49;100.00
55490;BME280;44029;52.956;4.772;2023-05-16T00:41:41;102129.13;;;11.27;100.00
55490;BME280;44029;52.956;4.772;2023-05-16T00:44:06;102132.19;;;11.37;100.00
55490;BME280;44029;52.956;4.772;2023-05-16T00:46:32;102137.97;;;11.29;100.00
55490;BME280;44029;52.956;4.772;2023-05-16T00:48:57;102132.50;;;11.29;100.00
55490;BME280;44029;52.956;4.772;2023-05-16T00:51:23;102130.97;;;11.33;100.00
55490;BME280;44029;52.956;4.772;2023-05-16T00:53:49;102130.97;;;11.33;100.00
55490;BME280;44029;52.956;4.772;2023-05-16T00:56:14;102125.50;;;11.33;100.00
55490;BME280;44029;52.956;4.772;2023-05-16T00:58:41;102119.78;;;11.35;100.00
55490;BME280;44029;52.956;4.772;2023-05-16T01:01:07;102115.13;;;11.35;100.00
55490;BME280;44029;52.956;4.772;2023-05-16T01:03:33;102114.22;;;11.41;100.00
55490;BME280;44029;52.956;4.772;2023-05-16T01:05:59;102111.03;;;11.45;100.00
55490;BME280;44029;52.956;4.772;2023-05-16T01:08:24;102113.47;;;11.53;100.00
55490;BME280;44029;52.956;4.772;2023-05-16T01:14:20;102111.03;;;11.88;100.00
55490;BME280;44029;52.956;4.772;2023-05-16T01:16:48;102112.69;;;11.27;100.00
55490;BME280;44029;52.956;4.772;2023-05-16T01:25:10;102120.50;;;11.49;100.00
55490;BME280;44029;52.956;4.772;2023-05-16T01:27:40;102113.72;;;11.51;100.00
55490;BME280;44029;52.956;4.772;2023-05-16T01:30:16;102109.41;;;11.80;100.00
55490;BME280;44029;52.956;4.772;2023-05-16T01:32:41;102117.91;;;11.54;100.00
55490;BME280;44029;52.956;4.772;2023-05-16T01:35:09;102111.03;;;11.88;100.00
55490;BME280;44029;52.956;4.772;2023-05-16T01:40:11;102110.16;;;11.94;100.00
55490;BME280;44029;52.956;4.772;2023-05-16T01:42:44;102109.31;;;11.94;100.00
55490;BME280;44029;52.956;4.772;2023-05-16T01:45:16;102108.34;;;11.63;100.00
55490;BME280;44029;52.956;4.772;2023-05-16T01:47:45;102113.94;;;11.93;100.00
55490;BME280;44029;52.956;4.772;2023-05-16T01:50:16;102110.88;;;11.83;100.00
55490;BME280;44029;52.956;4.772;2023-05-16T01:53:07;102115.66;;;11.88;100.00
55490;BME280;44029;52.956;4.772;2023-05-16T01:55:43;102118.94;;;11.78;100.00
55490;BME280;44029;52.956;4.772;2023-05-16T01:58:11;102108.50;;;11.68;100.00
55490;BME280;44029;52.956;4.772;2023-05-16T02:00:39;102112.91;;;11.69;100.00
55490;BME280;44029;52.956;4.772;2023-05-16T02:03:05;102121.66;;;11.59;100.00
55490;BME280;44029;52.956;4.772;2023-05-16T02:05:31;102115.88;;;11.68;100.00
55490;BME280;44029;52.956;4.772;2023-05-16T02:07:57;102115.56;;;11.57;100.00
55490;BME280;44029;52.956;4.772;2023-05-16T02:10:22;102114.13;;;11.55;100.00
55490;BME280;44029;52.956;4.772;2023-05-16T02:12:49;102114.44;;;11.84;100.00
55490;BME280;44029;52.956;4.772;2023-05-16T02:15:15;102119.91;;;11.65;100.00
55490;BME280;44029;52.956;4.772;2023-05-16T02:17:40;102118.72;;;11.79;100.00
55490;BME280;44029;52.956;4.772;2023-05-16T02:20:06;102117.38;;;11.89;100.00
55490;BME280;44029;52.956;4.772;2023-05-16T02:22:35;102126.19;;;11.72;100.00
55490;BME280;44029;52.956;4.772;2023-05-16T02:25:02;102125.44;;;11.84;100.00
55490;BME280;44029;52.956;4.772;2023-05-16T02:27:30;102121.31;;;11.74;100.00
55490;BME280;44029;52.956;4.772;2023-05-16T02:29:55;102131.47;;;11.49;100.00
55490;BME280;44029;52.956;4.772;2023-05-16T02:32:20;102124.63;;;11.58;100.00
55490;BME280;44029;52.956;4.772;2023-05-16T02:34:46;102124.66;;;11.76;100.00
55490;BME280;44029;52.956;4.772;2023-05-16T02:37:11;102136.81;;;11.62;100.00
55490;BME280;44029;52.956;4.772;2023-05-16T02:39:36;102123.41;;;11.54;100.00
55490;BME280;44029;52.956;4.772;2023-05-16T02:42:02;102126.34;;;11.77;100.00
55490;BME280;44029;52.956;4.772;2023-05-16T02:44:28;102124.31;;;11.91;100.00
55490;BME280;44029;52.956;4.772;2023-05-16T02:46:53;102124.78;;;11.88;100.00
55490;BME280;44029;52.956;4.772;2023-05-16T02:49:19;102126.19;;;11.72;100.00
55490;BME280;44029;52.956;4.772;2023-05-16T02:51:45;102126.03;;;11.92;100.00
55490;BME280;44029;52.956;4.772;2023-05-16T02:54:11;102121.53;;;11.73;100.00
55490;BME280;44029;52.956;4.772;2023-05-16T02:56:36;102127.13;;;11.85;100.00
55490;BME280;44029;52.956;4.772;2023-05-16T02:59:02;102127.03;;;11.73;100.00
55490;BME280;44029;52.956;4.772;2023-05-16T03:01:28;102137.22;;;11.66;100.00
55490;BME280;44029;52.956;4.772;2023-05-16T03:03:53;102137.78;;;11.49;100.00
55490;BME280;44029;52.956;4.772;2023-05-16T03:06:19;102139.47;;;11.75;100.00
55490;BME280;44029;52.956;4.772;2023-05-16T03:08:45;102135.91;;;11.93;100.00
55490;BME280;44029;52.956;4.772;2023-05-16T03:11:11;102144.00;;;11.63;100.00
55490;BME280;44029;52.956;4.772;2023-05-16T03:13:36;102144.19;;;11.43;100.00
55490;BME280;44029;52.956;4.772;2023-05-16T03:16:02;102130.25;;;11.45;100.00
55490;BME280;44029;52.956;4.772;2023-05-16T03:18:27;102135.72;;;11.45;100.00
55490;BME280;44029;52.956;4.772;2023-05-16T03:20:53;102130.34;;;11.56;100.00
55490;BME280;44029;52.956;4.772;2023-05-16T03:23:21;102136.34;;;11.72;100.00
55490;BME280;44029;52.956;4.772;2023-05-16T03:25:46;102141.44;;;11.43;100.00
55490;BME280;44029;52.956;4.772;2023-05-16T03:28:12;102144.88;;;11.38;100.00
55490;BME280;44029;52.956;4.772;2023-05-16T03:30:37;102144.94;;;11.57;100.00
55490;BME280;44029;52.956;4.772;2023-05-16T03:33:03;102135.88;;;11.75;100.00
55490;BME280;44029;52.956;4.772;2023-05-16T03:35:31;102146.34;;;11.85;100.00
55490;BME280;44029;52.956;4.772;2023-05-16T03:37:57;102147.81;;;11.62;100.00
55490;BME280;44029;52.956;4.772;2023-05-16T03:40:23;102149.88;;;11.41;100.00
55490;BME280;44029;52.956;4.772;2023-05-16T03:42:48;102144.63;;;11.40;100.00
55490;BME280;44029;52.956;4.772;2023-05-16T03:45:14;102142.19;;;11.57;100.00
55490;BME280;44029;52.956;4.772;2023-05-16T03:47:40;102147.94;;;11.49;100.00
55490;BME280;44029;52.956;4.772;2023-05-16T03:50:06;102142.06;;;11.70;100.00
55490;BME280;44029;52.956;4.772;2023-05-16T03:52:32;102149.84;;;11.73;100.00
55490;BME280;44029;52.956;4.772;2023-05-16T03:54:58;102148.75;;;11.74;100.00
55490;BME280;44029;52.956;4.772;2023-05-16T03:57:23;102150.66;;;11.74;100.00
55490;BME280;44029;52.956;4.772;2023-05-16T03:59:48;102155.91;;;12.01;100.00
55490;BME280;44029;52.956;4.772;2023-05-16T04:02:14;102152.63;;;11.92;100.00
55490;BME280;44029;52.956;4.772;2023-05-16T04:04:39;102148.28;;;12.03;100.00
55490;BME280;44029;52.956;4.772;2023-05-16T04:07:04;102147.91;;;11.99;100.00
55490;BME280;44029;52.956;4.772;2023-05-16T04:09:30;102148.22;;;12.46;100.00
55490;BME280;44029;52.956;4.772;2023-05-16T04:11:56;102146.22;;;12.84;100.00
55490;BME280;44029;52.956;4.772;2023-05-16T04:14:24;102152.75;;;13.01;100.00
55490;BME280;44029;52.956;4.772;2023-05-16T04:16:49;102152.75;;;12.71;100.00
55490;BME280;44029;52.956;4.772;2023-05-16T04:19:15;102145.25;;;12.48;100.00
55490;BME280;44029;52.956;4.772;2023-05-16T04:21:40;102153.09;;;12.63;100.00
55490;BME280;44029;52.956;4.772;2023-05-16T04:24:06;102147.72;;;12.68;100.00
55490;BME280;44029;52.956;4.772;2023-05-16T04:26:32;102151.59;;;12.30;100.00
55490;BME280;44029;52.956;4.772;2023-05-16T04:28:57;102152.94;;;12.39;100.00
55490;BME280;44029;52.956;4.772;2023-05-16T04:31:24;102162.16;;;13.24;100.00
55490;BME280;44029;52.956;4.772;2023-05-16T04:33:50;102161.91;;;12.83;100.00
55490;BME280;44029;52.956;4.772;2023-05-16T04:36:16;102162.50;;;12.85;100.00
55490;BME280;44029;52.956;4.772;2023-05-16T04:38:41;102167.19;;;12.96;100.00
55490;BME280;44029;52.956;4.772;2023-05-16T04:41:07;102168.09;;;12.60;100.00
55490;BME280;44029;52.956;4.772;2023-05-16T04:43:32;102161.63;;;12.54;100.00
55490;BME280;44029;52.956;4.772;2023-05-16T04:45:58;102172.28;;;13.11;100.00
55490;BME280;44029;52.956;4.772;2023-05-16T04:48:23;102168.28;;;12.95;100.00
55490;BME280;44029;52.956;4.772;2023-05-16T04:50:49;102166.94;;;13.28;100.00
55490;BME280;44029;52.956;4.772;2023-05-16T04:53:15;102173.16;;;13.66;100.00
55490;BME280;44029;52.956;4.772;2023-05-16T04:55:40;102171.34;;;13.95;100.00
55490;BME280;44029;52.956;4.772;2023-05-16T04:58:06;102175.53;;;13.86;100.00
55490;BME280;44029;52.956;4.772;2023-05-16T05:00:32;102168.44;;;14.14;100.00
55490;BME280;44029;52.956;4.772;2023-05-16T05:02:57;102170.50;;;13.95;100.00
55490;BME280;44029;52.956;4.772;2023-05-16T05:05:23;102169.31;;;13.55;100.00
55490;BME280;44029;52.956;4.772;2023-05-16T05:07:48;102164.88;;;13.66;100.00
55490;BME280;44029;52.956;4.772;2023-05-16T05:10:13;102166.81;;;13.77;100.00
55490;BME280;44029;52.956;4.772;2023-05-16T05:12:39;102171.09;;;14.08;100.00
55490;BME280;44029;52.956;4.772;2023-05-16T05:15:05;102166.69;;;13.96;100.00
55490;BME280;44029;52.956;4.772;2023-05-16T05:17:30;102175.81;;;13.30;100.00
55490;BME280;44029;52.956;4.772;2023-05-16T05:19:56;102180.72;;;12.98;100.00
55490;BME280;44029;52.956;4.772;2023-05-16T05:22:21;102174.59;;;13.26;100.00
55490;BME280;44029;52.956;4.772;2023-05-16T05:24:47;102167.94;;;13.34;100.00
55490;BME280;44029;52.956;4.772;2023-05-16T05:27:12;102179.94;;;13.09;100.00
55490;BME280;44029;52.956;4.772;2023-05-16T05:29:38;102178.59;;;13.12;100.00
55490;BME280;44029;52.956;4.772;2023-05-16T05:32:03;102189.84;;;12.80;100.00
55490;BME280;44029;52.956;4.772;2023-05-16T05:34:29;102187.22;;;13.04;100.00
55490;BME280;44029;52.956;4.772;2023-05-16T05:36:55;102180.69;;;14.99;100.00
55490;BME280;44029;52.956;4.772;2023-05-16T05:39:20;102172.34;;;15.90;100.00
55490;BME280;44029;52.956;4.772;2023-05-16T05:41:46;102182.28;;;15.40;100.00
55490;BME280;44029;52.956;4.772;2023-05-16T05:44:11;102201.13;;;14.34;100.00
55490;BME280;44029;52.956;4.772;2023-05-16T05:46:36;102188.78;;;15.34;100.00
55490;BME280;44029;52.956;4.772;2023-05-16T05:49:02;102194.88;;;16.21;100.00
55490;BME280;44029;52.956;4.772;2023-05-16T05:51:27;102187.28;;;17.27;100.00
55490;BME280;44029;52.956;4.772;2023-05-16T05:53:53;102194.00;;;16.37;100.00
55490;BME280;44029;52.956;4.772;2023-05-16T05:56:18;102197.25;;;15.44;100.00
55490;BME280;44029;52.956;4.772;2023-05-16T05:58:45;102203.94;;;15.32;100.00
55490;BME280;44029;52.956;4.772;2023-05-16T06:01:10;102193.03;;;17.47;100.00
55490;BME280;44029;52.956;4.772;2023-05-16T06:03:36;102188.47;;;18.53;100.00
55490;BME280;44029;52.956;4.772;2023-05-16T06:06:03;102191.19;;;19.58;96.83
55490;BME280;44029;52.956;4.772;2023-05-16T06:08:28;102207.78;;;18.91;96.48
55490;BME280;44029;52.956;4.772;2023-05-16T06:10:53;102198.75;;;18.63;94.79
55490;BME280;44029;52.956;4.772;2023-05-16T06:13:19;102208.97;;;18.00;100.00
55490;BME280;44029;52.956;4.772;2023-05-16T06:15:51;102207.06;;;19.62;93.45
55490;BME280;44029;52.956;4.772;2023-05-16T06:18:17;102209.31;;;18.61;99.02
55490;BME280;44029;52.956;4.772;2023-05-16T06:20:42;102221.16;;;17.66;100.00
55490;BME280;44029;52.956;4.772;2023-05-16T06:23:07;102224.88;;;17.82;100.00
55490;BME280;44029;52.956;4.772;2023-05-16T06:25:33;102227.13;;;16.54;100.00
55490;BME280;44029;52.956;4.772;2023-05-16T06:27:58;102231.06;;;17.89;100.00
55490;BME280;44029;52.956;4.772;2023-05-16T06:30:23;102239.09;;;16.38;100.00
55490;BME280;44029;52.956;4.772;2023-05-16T06:32:49;102234.22;;;15.89;100.00
55490;BME280;44029;52.956;4.772;2023-05-16T06:35:14;102235.38;;;15.76;100.00
55490;BME280;44029;52.956;4.772;2023-05-16T06:37:39;102231.69;;;16.04;100.00
55490;BME280;44029;52.956;4.772;2023-05-16T06:40:05;102230.16;;;16.97;100.00
55490;BME280;44029;52.956;4.772;2023-05-16T06:42:31;102230.06;;;17.68;100.00
55490;BME280;44029;52.956;4.772;2023-05-16T06:44:56;102226.78;;;17.71;100.00
55490;BME280;44029;52.956;4.772;2023-05-16T06:47:22;102227.00;;;18.45;100.00
55490;BME280;44029;52.956;4.772;2023-05-16T06:49:47;102225.84;;;18.93;99.19
55490;BME280;44029;52.956;4.772;2023-05-16T06:52:13;102231.72;;;19.12;96.87
55490;BME280;44029;52.956;4.772;2023-05-16T06:54:38;102226.03;;;18.71;96.22
55490;BME280;44029;52.956;4.772;2023-05-16T06:57:03;102233.53;;;18.23;100.00
55490;BME280;44029;52.956;4.772;2023-05-16T06:59:29;102230.06;;;18.48;96.46
55490;BME280;44029;52.956;4.772;2023-05-16T07:01:54;102232.84;;;17.41;100.00
55490;BME280;44029;52.956;4.772;2023-05-16T07:04:20;102232.13;;;18.73;97.63
55490;BME280;44029;52.956;4.772;2023-05-16T07:06:45;102234.53;;;17.15;100.00
55490;BME280;44029;52.956;4.772;2023-05-16T07:09:10;102239.47;;;18.00;100.00
55490;BME280;44029;52.956;4.772;2023-05-16T07:11:36;102242.00;;;18.49;96.23
55490;BME280;44029;52.956;4.772;2023-05-16T07:14:01;102248.09;;;18.46;96.57
55490;BME280;44029;52.956;4.772;2023-05-16T07:16:26;102238.38;;;18.01;100.00
55490;BME280;44029;52.956;4.772;2023-05-16T07:18:53;102240.44;;;17.24;100.00
55490;BME280;44029;52.956;4.772;2023-05-16T07:21:18;102248.59;;;16.25;100.00
55490;BME280;44029;52.956;4.772;2023-05-16T07:23:43;102249.34;;;16.20;100.00
55490;BME280;44029;52.956;4.772;2023-05-16T07:26:09;102254.16;;;17.13;100.00
55490;BME280;44029;52.956;4.772;2023-05-16T07:28:34;102256.13;;;16.30;100.00
55490;BME280;44029;52.956;4.772;2023-05-16T07:31:00;102256.81;;;15.86;100.00
55490;BME280;44029;52.956;4.772;2023-05-16T07:33:25;102257.28;;;16.34;100.00
55490;BME280;44029;52.956;4.772;2023-05-16T07:35:51;102258.69;;;16.75;100.00
55490;BME280;44029;52.956;4.772;2023-05-16T07:38:19;102264.41;;;16.69;100.00
55490;BME280;44029;52.956;4.772;2023-05-16T07:40:44;102265.94;;;16.59;100.00
55490;BME280;44029;52.956;4.772;2023-05-16T07:43:10;102274.84;;;16.45;100.00
55490;BME280;44029;52.956;4.772;2023-05-16T07:45:35;102271.38;;;16.93;100.00
55490;BME280;44029;52.956;4.772;2023-05-16T07:48:01;102265.81;;;17.15;100.00
55490;BME280;44029;52.956;4.772;2023-05-16T07:50:26;102273.53;;;16.69;100.00
55490;BME280;44029;52.956;4.772;2023-05-16T07:52:51;102272.22;;;17.43;100.00
55490;BME280;44029;52.956;4.772;2023-05-16T07:55:17;102266.84;;;17.64;100.00
55490;BME280;44029;52.956;4.772;2023-05-16T07:57:42;102269.75;;;17.19;100.00
55490;BME280;44029;52.956;4.772;2023-05-16T08:00:08;102266.34;;;17.39;100.00
55490;BME280;44029;52.956;4.772;2023-05-16T08:02:34;102265.53;;;16.51;100.00
55490;BME280;44029;52.956;4.772;2023-05-16T08:05:00;102262.22;;;18.02;100.00
55490;BME280;44029;52.956;4.772;2023-05-16T08:07:25;102272.03;;;19.20;99.96
55490;BME280;44029;52.956;4.772;2023-05-16T08:09:51;102266.84;;;19.85;93.18
55490;BME280;44029;52.956;4.772;2023-05-16T08:12:16;102260.09;;;19.25;96.34
55490;BME280;44029;52.956;4.772;2023-05-16T08:14:42;102270.75;;;19.89;92.64
55490;BME280;44029;52.956;4.772;2023-05-16T08:17:07;102280.50;;;18.35;96.19
55490;BME280;44029;52.956;4.772;2023-05-16T08:19:33;102280.97;;;19.43;97.56
55490;BME280;44029;52.956;4.772;2023-05-16T08:21:59;102285.56;;;18.48;100.00
55490;BME280;44029;52.956;4.772;2023-05-16T08:24:24;102280.25;;;18.89;99.03
55490;BME280;44029;52.956;4.772;2023-05-16T08:26:49;102277.72;;;18.83;95.67
55490;BME280;44029;52.956;4.772;2023-05-16T08:29:15;102279.31;;;18.73;97.00
55490;BME280;44029;52.956;4.772;2023-05-16T08:31:41;102283.91;;;17.77;100.00
55490;BME280;44029;52.956;4.772;2023-05-16T08:34:07;102280.81;;;17.74;100.00
55490;BME280;44029;52.956;4.772;2023-05-16T08:36:33;102283.03;;;17.72;100.00
55490;BME280;44029;52.956;4.772;2023-05-16T08:38:59;102278.31;;;18.95;100.00
55490;BME280;44029;52.956;4.772;2023-05-16T08:41:25;102284.06;;;19.57;98.19
55490;BME280;44029;52.956;4.772;2023-05-16T08:43:50;102277.41;;;19.99;94.80
55490;BME280;44029;52.956;4.772;2023-05-16T08:46:20;102289.53;;;18.63;99.81
55490;BME280;44029;52.956;4.772;2023-05-16T08:48:46;102289.50;;;17.83;100.00
55490;BME280;44029;52.956;4.772;2023-05-16T08:51:13;102289.94;;;17.69;100.00
55490;BME280;44029;52.956;4.772;2023-05-16T08:53:47;102296.22;;;17.32;100.00
55490;BME280;44029;52.956;4.772;2023-05-16T08:56:15;102296.22;;;17.32;100.00
55490;BME280;44029;52.956;4.772;2023-05-16T08:58:41;102290.34;;;17.29;100.00
55490;BME280;44029;52.956;4.772;2023-05-16T09:01:07;102298.59;;;17.24;100.00
55490;BME280;44029;52.956;4.772;2023-05-16T09:03:37;102291.97;;;17.79;100.00
55490;BME280;44029;52.956;4.772;2023-05-16T09:06:06;102295.25;;;17.22;100.00
55490;BME280;44029;52.956;4.772;2023-05-16T09:08:32;102299.44;;;16.24;100.00
55490;BME280;44029;52.956;4.772;2023-05-16T09:10:57;102301.06;;;16.59;100.00
55490;BME280;44029;52.956;4.772;2023-05-16T09:13:24;102301.63;;;17.00;100.00
55490;BME280;44029;52.956;4.772;2023-05-16T09:16:08;102305.41;;;16.72;100.00
55490;BME280;44029;52.956;4.772;2023-05-16T09:18:34;102300.44;;;16.74;100.00
55490;BME280;44029;52.956;4.772;2023-05-16T09:21:00;102303.69;;;17.10;100.00
55490;BME280;44029;52.956;4.772;2023-05-16T09:23:25;102302.13;;;17.19;100.00
55490;BME280;44029;52.956;4.772;2023-05-16T09:25:53;102301.75;;;17.32;100.00
55490;BME280;44029;52.956;4.772;2023-05-16T09:28:19;102302.53;;;17.28;100.00
55490;BME280;44029;52.956;4.772;2023-05-16T09:30:45;102301.25;;;17.13;100.00
55490;BME280;44029;52.956;4.772;2023-05-16T09:33:11;102306.28;;;16.94;100.00
55490;BME280;44029;52.956;4.772;2023-05-16T09:35:36;102308.16;;;16.89;100.00
55490;BME280;44029;52.956;4.772;2023-05-16T09:38:01;102306.66;;;17.25;100.00
55490;BME280;44029;52.956;4.772;2023-05-16T09:40:27;102306.13;;;17.06;100.00
55490;BME280;44029;52.956;4.772;2023-05-16T09:43:03;102306.25;;;17.93;100.00
55490;BME280;44029;52.956;4.772;2023-05-16T09:45:29;102301.19;;;17.85;100.00
55490;BME280;44029;52.956;4.772;2023-05-16T09:48:03;102304.38;;;17.71;100.00
55490;BME280;44029;52.956;4.772;2023-05-16T09:50:33;102302.69;;;17.98;100.00
55490;BME280;44029;52.956;4.772;2023-05-16T09:52:59;102305.50;;;17.48;100.00
55490;BME280;44029;52.956;4.772;2023-05-16T09:55:25;102302.31;;;17.89;100.00
55490;BME280;44029;52.956;4.772;2023-05-16T09:57:50;102308.22;;;17.98;100.00
55490;BME280;44029;52.956;4.772;2023-05-16T10:00:16;102309.47;;;17.57;100.00
55490;BME280;44029;52.956;4.772;2023-05-16T10:02:42;102309.09;;;17.49;100.00
55490;BME280;44029;52.956;4.772;2023-05-16T10:05:07;102307.34;;;17.37;100.00
55490;BME280;44029;52.956;4.772;2023-05-16T10:07:32;102302.47;;;17.23;100.00
55490;BME280;44029;52.956;4.772;2023-05-16T10:10:05;102304.66;;;17.20;100.00
55490;BME280;44029;52.956;4.772;2023-05-16T10:12:32;102316.78;;;17.14;100.00
55490;BME280;44029;52.956;4.772;2023-05-16T10:14:59;102306.66;;;17.52;100.00
55490;BME280;44029;52.956;4.772;2023-05-16T10:17:26;102303.66;;;17.05;100.00
55490;BME280;44029;52.956;4.772;2023-05-16T10:19:52;102306.75;;;17.35;100.00
55490;BME280;44029;52.956;4.772;2023-05-16T10:22:18;102312.69;;;17.44;100.00
55490;BME280;44029;52.956;4.772;2023-05-16T10:25:02;102307.16;;;17.76;100.00
55490;BME280;44029;52.956;4.772;2023-05-16T10:27:29;102308.09;;;17.55;100.00
55490;BME280;44029;52.956;4.772;2023-05-16T10:29:55;102312.03;;;17.37;100.00
55490;BME280;44029;52.956;4.772;2023-05-16T10:32:22;102305.47;;;17.98;100.00
55490;BME280;44029;52.956;4.772;2023-05-16T10:34:49;102305.66;;;17.64;100.00
55490;BME280;44029;52.956;4.772;2023-05-16T10:37:15;102310.22;;;17.75;100.00
55490;BME280;44029;52.956;4.772;2023-05-16T10:39:41;102313.41;;;17.34;100.00
55490;BME280;44029;52.956;4.772;2023-05-16T10:42:07;102311.53;;;17.94;100.00
55490;BME280;44029;52.956;4.772;2023-05-16T10:44:32;102306.69;;;17.30;100.00
55490;BME280;44029;52.956;4.772;2023-05-16T10:46:59;102308.97;;;17.61;100.00
55490;BME280;44029;52.956;4.772;2023-05-16T10:49:25;102307.63;;;17.90;100.00
55490;BME280;44029;52.956;4.772;2023-05-16T10:52:07;102308.44;;;18.28;100.00
55490;BME280;44029;52.956;4.772;2023-05-16T10:54:43;102311.84;;;17.98;96.46
55490;BME280;44029;52.956;4.772;2023-05-16T10:57:11;102318.38;;;18.19;93.24
55490;BME280;44029;52.956;4.772;2023-05-16T10:59:46;102315.28;;;18.15;98.02
55490;BME280;44029;52.956;4.772;2023-05-16T11:04:51;102320.59;;;18.60;94.56
55490;BME280;44029;52.956;4.772;2023-05-16T11:07:18;102321.69;;;18.16;98.76
55490;BME280;44029;52.956;4.772;2023-05-16T11:09:45;102331.81;;;18.38;100.00
55490;BME280;44029;52.956;4.772;2023-05-16T11:12:11;102326.47;;;18.26;100.00
55490;BME280;44029;52.956;4.772;2023-05-16T11:14:38;102332.59;;;17.68;100.00
55490;BME280;44029;52.956;4.772;2023-05-16T11:17:14;102325.13;;;17.69;100.00
55490;BME280;44029;52.956;4.772;2023-05-16T11:19:44;102319.53;;;17.91;100.00
55490;BME280;44029;52.956;4.772;2023-05-16T11:24:56;102321.44;;;17.85;100.00
55490;BME280;44029;52.956;4.772;2023-05-16T11:29:52;102319.91;;;18.00;100.00
55490;BME280;44029;52.956;4.772;2023-05-16T11:32:21;102314.59;;;18.73;100.00
55490;BME280;44029;52.956;4.772;2023-05-16T11:34:47;102326.69;;;18.19;100.00
55490;BME280;44029;52.956;4.772;2023-05-16T11:37:14;102316.25;;;18.31;100.00
55490;BME280;44029;52.956;4.772;2023-05-16T11:39:40;102318.97;;;18.21;100.00
55490;BME280;44029;52.956;4.772;2023-05-16T11:42:05;102316.78;;;18.28;100.00
55490;BME280;44029;52.956;4.772;2023-05-16T11:44:31;102320.28;;;18.56;100.00
55490;BME280;44029;52.956;4.772;2023-05-16T11:46:56;102320.16;;;18.35;100.00
55490;BME280;44029;52.956;4.772;2023-05-16T11:49:21;102319.56;;;18.28;100.00
55490;BME280;44029;52.956;4.772;2023-05-16T11:51:47;102314.47;;;18.58;100.00
55490;BME280;44029;52.956;4.772;2023-05-16T11:54:14;102307.53;;;18.55;100.00
55490;BME280;44029;52.956;4.772;2023-05-16T11:56:40;102314.19;;;18.54;100.00
55490;BME280;44029;52.956;4.772;2023-05-16T11:59:06;102307.41;;;18.34;100.00
55490;BME280;44029;52.956;4.772;2023-05-16T12:01:36;102308.97;;;18.20;100.00
55490;BME280;44029;52.956;4.772;2023-05-16T12:04:12;102300.22;;;18.39;100.00
55490;BME280;44029;52.956;4.772;2023-05-16T12:06:38;102309.63;;;18.32;100.00
55490;BME280;44029;52.956;4.772;2023-05-16T12:09:05;102310.72;;;18.31;96.51
55490;BME280;44029;52.956;4.772;2023-05-16T12:11:42;102308.09;;;18.14;98.85
55490;BME280;44029;52.956;4.772;2023-05-16T12:14:09;102321.25;;;18.29;100.00
55490;BME280;44029;52.956;4.772;2023-05-16T12:16:36;102316.22;;;18.26;100.00
55490;BME280;44029;52.956;4.772;2023-05-16T12:19:03;102316.81;;;17.96;97.70
55490;BME280;44029;52.956;4.772;2023-05-16T12:21:30;102327.31;;;18.26;97.76
55490;BME280;44029;52.956;4.772;2023-05-16T12:23:56;102322.31;;;18.28;95.96
55490;BME280;44029;52.956;4.772;2023-05-16T12:26:32;102318.16;;;18.68;91.10
55490;BME280;44029;52.956;4.772;2023-05-16T12:28:59;102317.25;;;18.58;95.28
55490;BME280;44029;52.956;4.772;2023-05-16T12:31:27;102308.41;;;18.61;88.69
55490;BME280;44029;52.956;4.772;2023-05-16T12:33:55;102306.97;;;18.53;92.04
55490;BME280;44029;52.956;4.772;2023-05-16T12:36:21;102307.03;;;19.16;90.28
55490;BME280;44029;52.956;4.772;2023-05-16T12:38:47;102317.03;;;18.64;84.88
55490;BME280;44029;52.956;4.772;2023-05-16T12:41:19;102316.50;;;18.72;90.12
55490;BME280;44029;52.956;4.772;2023-05-16T12:43:46;102314.44;;;19.00;93.63
55490;BME280;44029;52.956;4.772;2023-05-16T12:46:11;102316.34;;;18.89;91.98
55490;BME280;44029;52.956;4.772;2023-05-16T12:48:37;102326.88;;;18.87;90.27
55490;BME280;44029;52.956;4.772;2023-05-16T12:51:10;102321.00;;;18.79;97.35
55490;BME280;44029;52.956;4.772;2023-05-16T12:53:55;102312.09;;;19.40;98.00
55490;BME280;44029;52.956;4.772;2023-05-16T12:56:22;102309.59;;;19.48;93.57